createdAt,value
2022-12-02T00:04:43.328Z,75.69
2022-12-02T00:19:46.357Z,75.91
2022-12-02T00:34:49.534Z,76.23
2022-12-02T00:49:52.784Z,75.45
2022-12-02T01:04:55.421Z,75.29
2022-12-02T01:19:58.089Z,75.59
2022-12-02T01:35:15.399Z,75.07
2022-12-02T01:50:19.239Z,74.75
2022-12-02T02:05:31.769Z,74.89
2022-12-02T02:20:39.870Z,74.59
2022-12-02T02:35:45.077Z,74.53
2022-12-02T03:00:22.448Z,75.39
2022-12-02T03:15:40.352Z,75.67
2022-12-02T03:30:43.955Z,75.93
2022-12-02T03:45:47.020Z,75.92
2022-12-02T04:00:50.926Z,75.18
2022-12-02T04:15:53.856Z,75.19
2022-12-02T04:31:11.222Z,75.73
2022-12-02T04:46:28.341Z,75.47
2022-12-02T05:01:30.908Z,74.92
2022-12-02T05:16:48.007Z,75.08
2022-12-02T05:31:50.565Z,74.88
2022-12-02T05:47:01.124Z,75.16
2022-12-02T06:02:25.633Z,75.04
2022-12-02T06:17:28.444Z,75.82
2022-12-02T06:32:39.757Z,75.94
2022-12-02T06:47:45.730Z,76.54
2022-12-02T07:02:48.963Z,76.30
2022-12-02T07:17:52.783Z,76.21
2022-12-02T07:32:56.941Z,76.43
2022-12-02T07:48:00.038Z,76.15
2022-12-02T08:03:03.237Z,76.25
2022-12-02T08:18:06.377Z,76.29
2022-12-02T08:33:09.793Z,76.60
2022-12-02T08:48:12.746Z,76.06
2022-12-02T09:03:15.589Z,76.14
2022-12-02T09:18:18.275Z,76.68
2022-12-02T09:33:21.089Z,76.27
2022-12-02T09:48:24.961Z,76.37
2022-12-02T10:03:29.266Z,76.17
2022-12-02T10:18:33.960Z,76.30
2022-12-02T10:33:54.388Z,75.87
2022-12-02T10:49:31.028Z,75.72
2022-12-02T11:04:33.636Z,75.24
2022-12-02T11:19:37.167Z,75.47
2022-12-02T11:50:27.862Z,75.20
2022-12-02T12:05:30.626Z,75.15
2022-12-02T12:20:35.892Z,75.21
2022-12-02T12:35:54.973Z,75.21
2022-12-02T12:50:57.716Z,75.01
2022-12-02T13:21:32.659Z,74.76
2022-12-02T13:36:49.691Z,75.05
2022-12-02T13:51:52.317Z,74.76
2022-12-02T14:06:55.990Z,74.59
2022-12-02T14:21:58.916Z,74.53
2022-12-02T14:37:16.082Z,74.17
2022-12-02T14:52:33.248Z,74.38
2022-12-02T15:08:12.595Z,74.22
2022-12-02T15:23:15.355Z,73.90
2022-12-02T15:38:18.108Z,73.91
2022-12-02T15:53:20.626Z,73.88
2022-12-02T16:08:23.485Z,74.18
2022-12-02T16:23:26.557Z,73.98
2022-12-02T16:38:43.828Z,73.99
2022-12-02T16:54:01.598Z,73.85
2022-12-02T17:09:04.459Z,73.89
2022-12-02T17:24:07.646Z,73.70
2022-12-02T17:39:11.076Z,73.64
2022-12-02T17:54:28.815Z,73.66
2022-12-02T18:09:31.990Z,73.63
2022-12-02T18:24:34.754Z,73.83
2022-12-02T18:39:37.529Z,73.71
2022-12-02T18:54:40.214Z,73.45
2022-12-02T19:09:43.333Z,73.66
2022-12-02T19:24:46.242Z,74.01
2022-12-02T19:39:49.664Z,73.69
2022-12-02T19:54:52.479Z,73.54
2022-12-02T20:09:55.409Z,73.56
2022-12-02T20:24:58.315Z,73.48
2022-12-02T20:40:01.156Z,74.11
2022-12-02T20:55:06.183Z,73.66
2022-12-02T21:10:09.694Z,74.06
2022-12-02T21:25:13.440Z,73.95
2022-12-02T21:40:17.500Z,73.93
2022-12-02T21:55:20.519Z,74.53
2022-12-02T22:10:25.750Z,74.28
2022-12-02T22:25:28.541Z,74.93
2022-12-02T22:40:45.702Z,74.62
2022-12-02T22:55:48.244Z,74.80
2022-12-02T23:10:51.216Z,75.06
2022-12-02T23:25:53.946Z,75.18
2022-12-02T23:40:56.638Z,75.23
2022-12-02T23:55:59.252Z,75.95
